メインページ
METAR-TAF:

METAR-TAF

空港 :

ポンタ・デルガダ, !acores!, ポルトガル

ポンタ・デルガダ空港

緯度: 37-44N, 経度: 025-42W, 海抜: 71m

現時点の気象観測

当レポートは23分前の07:30(UTC)に作成
西の風 8kt
気温 18°C
湿度 94%
気圧 1011 hPa
視程: 9000m
高度700ftの雲はほとんどない
高度1200ftの雲は散在している
高度3000ftの千切れ雲あり
小雨

METAR: LPPD 200730Z 28008KT 9000 -RA FEW007 SCT012 BKN030 18/17 Q1011

時間: 06:53 (07:53 UTC)

予報

当レポートは23分前の07:30(UTC)に作成
予報は20日の 07時(UTC)から 21日の 06時(UTC)まで有効
西の風 10kt
視程: 8000m
高度1200ftの雲は散在している
高度2500ftの千切れ雲あり
小雨
20日の 07時(UTC)から 20日の 09時(UTC)まで一時的に
視程: 3000m
高度300ftの雲は散在している
高度600ftの千切れ雲あり
雨, 霧雨, 靄
確率 30% :
20日の 07時(UTC)から 20日の 09時(UTC)まで一時的に
変向風 15kt、最大30ktの突風を伴う
視程: 1500m
高度300ftの千切れ雲あり
高度1800ftの雲はほとんどない, 積乱雲.
大雨, 靄
20日の 09時(UTC)から 20日の 12時(UTC)まで徐々に
南/南西の風 8kt
視程10km以上
高度1500ftの雲は散在している
高度3000ftの雲は散在している
20日の 09時(UTC)から 21日の 06時(UTC)まで一時的に
視程: 8000m
高度1500ftの千切れ雲あり
にわか雨
21日の 01時(UTC)から 21日の 03時(UTC)まで徐々に
西の風 10kt

TAF: LPPD 200730Z 2007/2106 28010KT 8000 -RA SCT012 BKN025 TEMPO 2007/2009 3000 RADZ BR SCT003 BKN006 PROB30 TEMPO 2007/2009 VRB15G30KT 1500 +RA BR BKN003 FEW018CB BECMG 2009/2012 21008KT 9999 NSW SCT015 SCT030 TEMPO 2009/2106 8000 SHRA BKN015 BECMG 2101/2103 28010KT

4,000以上の空港の気象観測と天気予報(METAR報とTAF報)

利用可能な観測所は地図上に黄色い丸と赤い丸で示す。

丸の上にカーソルを重ねると観測所名を参照できる。

次にクリックすると気象観測と天気予報を参照できる。

マップの切り替え:黒色「×」印の緑ボタンをクリックして拡大、「-」印の緑ボタンをクリックして縮小、緑色の三角印をクリックして隣りの地図に切り替え


METAR-TAF: